Time;durP1;ratioP1;P1;durP2;ratioP2;P2;SDS_P1;SDS_P2;PMS_P1;PMS_P2;Temp;Humidity;BMP_temperature;BMP_pressure;BME280_temperature;BME280_humidity;BME280_pressure;Samples;Min_cycle;Max_cycle;Signal;HPM_P1;HPM_P2
2023/08/24 00:00:22;;;;;;;4.83;4.00;;;22.40;70.00;;;;;;5075707;28;20954;-59
2023/08/24 00:02:49;;;;;;;7.77;4.23;;;22.30;70.00;;;;;;5075592;28;20488;-59
2023/08/24 00:05:16;;;;;;;5.30;4.00;;;22.30;70.50;;;;;;5075909;28;20445;-59
2023/08/24 00:07:43;;;;;;;9.23;4.20;;;22.20;70.40;;;;;;5075885;28;20449;-59
2023/08/24 00:10:10;;;;;;;6.53;4.23;;;22.20;70.60;;;;;;5075818;28;20444;-59
2023/08/24 00:12:39;;;;;;;7.50;4.10;;;22.10;71.40;;;;;;5075704;28;20829;-59
2023/08/24 00:15:08;;;;;;;5.00;3.73;;;22.10;71.60;;;;;;5075765;28;20448;-59
2023/08/24 00:17:35;;;;;;;5.53;4.13;;;22.00;71.60;;;;;;5075681;28;20449;-59
2023/08/24 00:20:04;;;;;;;8.47;4.07;;;22.00;72.10;;;;;;5075280;28;20850;-59
2023/08/24 00:22:30;;;;;;;5.03;3.87;;;21.90;72.50;;;;;;5075339;28;20484;-59
2023/08/24 00:24:57;;;;;;;4.40;4.00;;;21.90;72.50;;;;;;5075264;28;20961;-59
2023/08/24 00:27:24;;;;;;;7.00;4.80;;;21.90;72.60;;;;;;5075158;28;20445;-58
2023/08/24 00:29:52;;;;;;;4.70;4.20;;;21.80;73.00;;;;;;5075341;28;20851;-59
2023/08/24 00:32:19;;;;;;;4.87;4.40;;;21.90;73.50;;;;;;5074541;28;20833;-59
2023/08/24 00:34:46;;;;;;;4.30;3.90;;;21.90;73.40;;;;;;5075335;28;20445;-59
2023/08/24 00:37:13;;;;;;;9.60;4.80;;;21.80;73.10;;;;;;5075367;28;20472;-59
2023/08/24 00:39:40;;;;;;;5.90;4.40;;;21.80;73.40;;;;;;5075376;28;20452;-59
2023/08/24 00:42:08;;;;;;;5.57;3.90;;;21.80;74.00;;;;;;5075215;28;20489;-60
2023/08/24 00:44:35;;;;;;;5.43;3.77;;;21.80;74.10;;;;;;5075361;28;20475;-59
2023/08/24 00:47:03;;;;;;;6.37;3.63;;;21.80;73.90;;;;;;5075295;28;20452;-59
2023/08/24 00:49:30;;;;;;;9.50;4.30;;;21.70;73.90;;;;;;5074805;28;20482;-59
2023/08/24 00:51:57;;;;;;;4.83;3.63;;;21.70;74.10;;;;;;5074941;28;20467;-59
2023/08/24 00:54:24;;;;;;;4.30;3.90;;;21.70;74.70;;;;;;5075114;28;20439;-59
2023/08/24 00:56:50;;;;;;;4.40;3.77;;;21.70;74.90;;;;;;5074687;28;20984;-59
2023/08/24 00:59:17;;;;;;;9.57;3.83;;;21.70;74.80;;;;;;5074648;28;20452;-59
2023/08/24 01:01:47;;;;;;;5.87;4.70;;;21.70;74.90;;;;;;5074769;28;20507;-59
2023/08/24 01:04:16;;;;;;;3.90;3.60;;;21.70;75.20;;;;;;5074867;28;20428;-59
2023/08/24 01:06:42;;;;;;;4.80;4.30;;;21.70;75.60;;;;;;5074825;28;20436;-59
2023/08/24 01:09:09;;;;;;;7.90;4.30;;;21.60;75.40;;;;;;5074698;28;20441;-59
2023/08/24 01:11:51;;;;;;;6.23;4.00;;;21.60;75.90;;;;;;5074729;28;20456;-59
2023/08/24 01:14:28;;;;;;;3.83;3.50;;;21.60;76.10;;;;;;5074623;28;20445;-59
2023/08/24 01:16:58;;;;;;;5.60;3.97;;;21.60;76.00;;;;;;5074641;28;20432;-59
2023/08/24 01:19:38;;;;;;;4.63;4.03;;;21.50;76.00;;;;;;5074599;28;20425;-60
2023/08/24 01:22:13;;;;;;;5.40;4.30;;;21.40;76.20;;;;;;5074148;28;20496;-59
2023/08/24 01:24:45;;;;;;;5.63;3.70;;;21.40;76.70;;;;;;5074429;28;20431;-59
2023/08/24 01:27:15;;;;;;;9.00;4.70;;;21.30;76.80;;;;;;5074516;28;20425;-59
2023/08/24 01:29:42;;;;;;;9.63;3.97;;;21.30;77.40;;;;;;5074303;28;20452;-59
2023/08/24 01:32:11;;;;;;;5.30;3.80;;;21.30;77.40;;;;;;5074178;28;20460;-59
2023/08/24 01:34:39;;;;;;;7.73;3.90;;;21.30;77.60;;;;;;5074190;28;20479;-59
2023/08/24 01:37:06;;;;;;;4.80;3.90;;;21.20;78.10;;;;;;5074182;28;20469;-59
2023/08/24 01:39:40;;;;;;;4.30;3.90;;;21.30;78.40;;;;;;5074092;28;20443;-59
2023/08/24 01:42:11;;;;;;;4.10;3.40;;;21.20;78.60;;;;;;5074022;28;20519;-59
2023/08/24 01:44:45;;;;;;;8.77;4.10;;;21.20;78.60;;;;;;5073585;28;20433;-59
2023/08/24 01:47:12;;;;;;;5.87;4.10;;;21.20;78.70;;;;;;5074026;28;20440;-59
2023/08/24 01:49:41;;;;;;;5.20;4.10;;;21.30;78.90;;;;;;5074014;28;20848;-59
2023/08/24 01:52:09;;;;;;;7.13;4.40;;;21.20;79.00;;;;;;5073732;28;20460;-59
2023/08/24 01:54:36;;;;;;;8.50;4.47;;;21.20;79.30;;;;;;5073767;28;20472;-59
2023/08/24 01:57:05;;;;;;;4.70;4.20;;;21.20;79.50;;;;;;5073552;28;20847;-59
2023/08/24 01:59:32;;;;;;;9.43;3.90;;;21.10;79.60;;;;;;5073761;28;20444;-59
2023/08/24 02:02:00;;;;;;;4.37;3.97;;;21.20;79.90;;;;;;5073523;28;20481;-59
2023/08/24 02:04:27;;;;;;;8.57;4.63;;;21.20;79.80;;;;;;5073790;28;20463;-59
2023/08/24 02:06:53;;;;;;;4.80;4.40;;;21.20;80.00;;;;;;5073666;28;20464;-59
2023/08/24 02:09:20;;;;;;;7.63;4.10;;;21.20;80.20;;;;;;5073672;28;20468;-59
2023/08/24 02:11:46;;;;;;;7.30;4.17;;;21.20;80.60;;;;;;5073544;28;20869;-59
2023/08/24 02:14:13;;;;;;;6.20;4.00;;;21.10;80.60;;;;;;5073635;28;20449;-59
2023/08/24 02:16:40;;;;;;;5.33;3.97;;;21.10;80.60;;;;;;5073583;28;20447;-59
2023/08/24 02:19:08;;;;;;;8.27;4.20;;;21.10;80.80;;;;;;5073566;28;20506;-59
2023/08/24 02:21:36;;;;;;;6.20;5.03;;;21.10;81.00;;;;;;5073127;28;20484;-59
2023/08/24 02:24:03;;;;;;;5.37;4.10;;;21.10;81.40;;;;;;5073486;28;20448;-59
2023/08/24 02:26:30;;;;;;;5.00;4.50;;;21.00;81.30;;;;;;5073569;28;20444;-59
2023/08/24 02:28:58;;;;;;;6.80;3.63;;;20.90;81.50;;;;;;5073437;28;20494;-59
2023/08/24 02:31:25;;;;;;;3.80;3.50;;;20.90;82.00;;;;;;5073007;28;20977;-59
2023/08/24 02:33:51;;;;;;;3.93;3.53;;;20.80;82.10;;;;;;5073403;28;20440;-59
2023/08/24 02:36:19;;;;;;;6.77;4.60;;;20.80;82.30;;;;;;5073310;28;20441;-59
2023/08/24 02:38:47;;;;;;;8.93;4.30;;;20.80;82.50;;;;;;5073039;28;20821;-59
2023/08/24 02:41:14;;;;;;;5.77;4.87;;;20.80;82.60;;;;;;5072892;28;20875;-59
2023/08/24 02:43:41;;;;;;;5.80;4.70;;;20.80;82.20;;;;;;5073171;28;20495;-59
2023/08/24 02:46:09;;;;;;;7.17;5.27;;;20.80;82.20;;;;;;5073296;28;20476;-59
2023/08/24 02:48:36;;;;;;;4.93;4.40;;;20.80;82.40;;;;;;5073189;28;20441;-59
2023/08/24 02:51:04;;;;;;;7.40;4.40;;;20.80;82.70;;;;;;5073117;28;20518;-59
2023/08/24 02:53:32;;;;;;;4.37;3.97;;;20.90;83.10;;;;;;5073250;28;20441;-59
2023/08/24 02:55:59;;;;;;;6.50;4.60;;;20.90;83.40;;;;;;5077430;28;20472;-59
2023/08/24 02:58:26;;;;;;;4.47;4.07;;;21.00;83.90;;;;;;5077249;28;20446;-59
2023/08/24 03:00:53;;;;;;;5.23;4.60;;;21.00;85.20;;;;;;5077138;28;20464;-59
2023/08/24 03:03:20;;;;;;;6.50;4.03;;;21.00;84.90;;;;;;5077080;28;20480;-59
2023/08/24 03:05:56;;;;;;;10.03;4.30;;;21.00;85.10;;;;;;5076817;28;20952;-59
2023/08/24 03:08:23;;;;;;;5.60;4.17;;;21.00;85.50;;;;;;5076999;28;20483;-59
2023/08/24 03:10:51;;;;;;;9.63;4.77;;;20.90;85.90;;;;;;5076879;28;20452;-59
2023/08/24 03:13:18;;;;;;;4.90;4.47;;;20.90;86.10;;;;;;5076914;28;20451;-59
2023/08/24 03:15:46;;;;;;;6.20;4.20;;;20.80;86.30;;;;;;5076880;28;20495;-59
2023/08/24 03:18:13;;;;;;;6.77;5.10;;;20.80;86.40;;;;;;5076867;28;20477;-58
2023/08/24 03:20:40;;;;;;;4.57;4.17;;;20.80;86.60;;;;;;5076725;28;20483;-59
2023/08/24 03:23:07;;;;;;;5.10;4.50;;;20.80;86.50;;;;;;5076982;28;20480;-58
2023/08/24 03:25:37;;;;;;;7.73;4.97;;;20.80;86.20;;;;;;5076702;28;20494;-59
2023/08/24 03:28:07;;;;;;;9.47;4.60;;;20.80;86.00;;;;;;5076676;28;20421;-58
2023/08/24 03:30:34;;;;;;;6.63;4.80;;;20.80;86.40;;;;;;5076266;28;20942;-59
2023/08/24 03:33:02;;;;;;;5.40;4.83;;;20.80;87.20;;;;;;5076507;28;20453;-59
2023/08/24 03:35:29;;;;;;;7.10;5.60;;;20.70;88.60;;;;;;5076526;28;20447;-58
2023/08/24 03:37:56;;;;;;;5.43;4.50;;;20.70;89.00;;;;;;5076344;28;20444;-58
2023/08/24 03:40:23;;;;;;;9.10;5.30;;;20.60;89.20;;;;;;5076073;28;20938;-59
2023/08/24 03:42:50;;;;;;;6.87;5.80;;;20.60;89.50;;;;;;5076265;28;20515;-59
2023/08/24 03:45:17;;;;;;;8.87;5.50;;;20.60;89.40;;;;;;5076647;28;20444;-58
2023/08/24 03:47:43;;;;;;;7.30;5.60;;;20.70;89.30;;;;;;5076091;28;20452;-58
2023/08/24 03:50:10;;;;;;;9.30;5.90;;;20.70;89.50;;;;;;5076195;28;20451;-58
2023/08/24 03:52:39;;;;;;;5.93;5.43;;;20.80;90.00;;;;;;5076137;28;20460;-58
2023/08/24 03:55:06;;;;;;;6.40;5.23;;;20.90;90.10;;;;;;5076045;28;20870;-59
2023/08/24 03:57:33;;;;;;;11.57;6.00;;;20.90;89.90;;;;;;5075833;28;20476;-59
2023/08/24 04:00:00;;;;;;;6.93;5.23;;;21.00;90.10;;;;;;5075989;28;20520;-58
2023/08/24 04:02:28;;;;;;;8.50;5.50;;;21.00;90.20;;;;;;5075448;28;20480;-58
2023/08/24 04:04:55;;;;;;;9.20;5.17;;;21.00;90.50;;;;;;5075375;28;21000;-57
2023/08/24 04:07:21;;;;;;;6.93;5.67;;;21.00;90.80;;;;;;5075477;28;20499;-57
2023/08/24 04:09:48;;;;;;;6.73;6.07;;;21.10;90.80;;;;;;5075917;28;20457;-57
2023/08/24 04:12:15;;;;;;;7.13;5.90;;;21.10;90.80;;;;;;5075476;28;21004;-58
2023/08/24 04:14:41;;;;;;;7.40;5.67;;;21.10;90.90;;;;;;5075611;28;20954;-57
2023/08/24 04:17:08;;;;;;;9.60;6.03;;;21.10;90.90;;;;;;5075897;28;20456;-57
2023/08/24 04:19:38;;;;;;;6.03;5.30;;;21.10;90.90;;;;;;5075587;28;20456;-57
2023/08/24 04:22:05;;;;;;;7.63;6.83;;;21.10;91.10;;;;;;5075451;28;20476;-58
2023/08/24 04:24:32;;;;;;;9.20;6.40;;;21.10;91.30;;;;;;5075971;28;20548;-58
2023/08/24 04:26:58;;;;;;;9.40;6.47;;;21.20;91.50;;;;;;5075639;28;20452;-57
2023/08/24 04:29:25;;;;;;;7.53;6.07;;;21.20;91.60;;;;;;5064715;28;20449;-58
2023/08/24 04:31:52;;;;;;;6.60;5.90;;;21.20;91.70;;;;;;5055370;28;20837;-58
2023/08/24 04:34:18;;;;;;;8.00;6.60;;;21.20;91.90;;;;;;5055685;28;20805;-57
2023/08/24 04:36:46;;;;;;;8.10;6.07;;;21.20;92.00;;;;;;5070985;28;20863;-58
2023/08/24 04:39:13;;;;;;;7.23;6.43;;;21.20;91.90;;;;;;5075819;28;20452;-59
2023/08/24 04:41:40;;;;;;;12.07;6.83;;;21.20;92.00;;;;;;5074961;28;20461;-59
2023/08/24 04:44:07;;;;;;;11.80;6.00;;;21.20;92.10;;;;;;5075313;28;20652;-57
2023/08/24 04:46:34;;;;;;;10.47;7.57;;;21.20;92.10;;;;;;5075089;28;20863;-58
2023/08/24 04:49:01;;;;;;;9.80;5.67;;;21.20;92.20;;;;;;5075025;28;20456;-58
2023/08/24 04:51:29;;;;;;;12.80;7.30;;;21.20;92.40;;;;;;5075071;28;20518;-58
2023/08/24 04:53:57;;;;;;;7.70;6.53;;;21.20;92.40;;;;;;5074827;28;20563;-58
2023/08/24 04:56:23;;;;;;;9.10;6.60;;;21.20;92.60;;;;;;5075196;28;20827;-59
2023/08/24 04:58:55;;;;;;;12.63;6.90;;;21.20;92.80;;;;;;5075146;28;20475;-59
2023/08/24 05:01:21;;;;;;;8.03;6.87;;;21.20;92.70;;;;;;5074867;28;20499;-59
2023/08/24 05:03:48;;;;;;;12.40;7.87;;;21.20;92.60;;;;;;5074879;28;21017;-59
2023/08/24 05:06:15;;;;;;;11.27;8.17;;;21.20;92.70;;;;;;5074800;28;20440;-59
2023/08/24 05:08:41;;;;;;;12.50;9.30;;;21.20;93.00;;;;;;5074934;28;20445;-59
2023/08/24 05:11:14;;;;;;;18.50;9.47;;;21.20;93.20;;;;;;5074732;28;20463;-59
2023/08/24 05:13:40;;;;;;;11.13;9.20;;;21.10;93.20;;;;;;5075099;28;20455;-59
2023/08/24 05:16:07;;;;;;;13.67;8.90;;;21.10;93.30;;;;;;5074638;28;20447;-59
2023/08/24 05:18:36;;;;;;;13.30;9.30;;;21.10;93.60;;;;;;5074355;28;20448;-59
2023/08/24 05:21:03;;;;;;;10.77;9.40;;;21.20;93.90;;;;;;5074233;28;20567;-59
2023/08/24 05:23:29;;;;;;;13.57;9.47;;;21.20;94.10;;;;;;5074432;28;20465;-59
2023/08/24 05:25:57;;;;;;;11.50;8.40;;;21.20;94.20;;;;;;5074561;28;20477;-59
2023/08/24 05:28:25;;;;;;;11.13;9.07;;;21.20;94.30;;;;;;5074428;28;20444;-59
2023/08/24 05:30:52;;;;;;;12.03;8.77;;;21.30;94.30;;;;;;5074353;28;20476;-59
2023/08/24 05:33:20;;;;;;;10.27;7.60;;;21.30;94.40;;;;;;5073938;28;20844;-59
2023/08/24 05:35:46;;;;;;;9.03;7.53;;;21.30;94.30;;;;;;5074170;28;20473;-59
2023/08/24 05:38:13;;;;;;;11.80;7.70;;;21.30;94.40;;;;;;5074331;28;20448;-59
2023/08/24 05:40:42;;;;;;;11.93;9.43;;;21.30;94.50;;;;;;5074146;28;20445;-59
2023/08/24 05:43:09;;;;;;;9.40;7.90;;;21.30;94.30;;;;;;5074248;28;20572;-59
2023/08/24 05:45:39;;;;;;;9.67;7.60;;;21.30;94.00;;;;;;5074248;28;20455;-59
2023/08/24 05:48:06;;;;;;;7.03;6.30;;;21.30;94.40;;;;;;5074181;28;20448;-59
2023/08/24 05:50:33;;;;;;;11.10;7.87;;;21.40;94.70;;;;;;5073703;28;20827;-59
2023/08/24 05:53:00;;;;;;;13.13;8.80;;;21.40;94.60;;;;;;5073931;28;20441;-58
2023/08/24 05:55:27;;;;;;;9.70;8.30;;;21.50;94.50;;;;;;5073783;28;20441;-59
2023/08/24 05:57:53;;;;;;;10.30;8.20;;;21.50;94.50;;;;;;5073859;28;20448;-59
2023/08/24 06:00:22;;;;;;;10.13;8.60;;;21.60;94.40;;;;;;5073863;28;20437;-59
2023/08/24 06:02:50;;;;;;;10.13;7.80;;;21.60;94.30;;;;;;5073339;28;20486;-59
2023/08/24 06:05:17;;;;;;;10.03;7.90;;;21.60;94.20;;;;;;5073599;28;20445;-59
2023/08/24 06:07:45;;;;;;;8.37;7.57;;;21.70;94.20;;;;;;5073382;28;20448;-59
2023/08/24 06:10:12;;;;;;;9.50;8.00;;;21.70;94.20;;;;;;5073522;28;20547;-59
2023/08/24 06:12:39;;;;;;;10.33;8.50;;;21.70;94.10;;;;;;5073319;28;20990;-59
2023/08/24 06:15:09;;;;;;;12.97;9.20;;;21.70;94.20;;;;;;5073426;28;20451;-59
2023/08/24 06:17:36;;;;;;;13.67;9.57;;;21.60;94.10;;;;;;5073824;28;20816;-59
2023/08/24 06:20:04;;;;;;;10.23;9.23;;;21.60;94.30;;;;;;5073543;28;20498;-59
2023/08/24 06:22:31;;;;;;;12.07;9.47;;;21.40;94.30;;;;;;5073187;28;20488;-59
2023/08/24 06:25:00;;;;;;;12.50;8.43;;;21.50;94.90;;;;;;5073645;28;20484;-59
2023/08/24 06:27:26;;;;;;;9.23;8.33;;;21.50;94.70;;;;;;5074463;28;20451;-59
2023/08/24 06:29:53;;;;;;;10.17;8.83;;;21.50;95.10;;;;;;5073600;28;20443;-59
2023/08/24 06:32:20;;;;;;;10.40;8.37;;;21.60;95.10;;;;;;5073268;28;20456;-59
2023/08/24 06:34:47;;;;;;;9.77;8.70;;;21.70;94.90;;;;;;5073310;28;20506;-59
2023/08/24 06:37:15;;;;;;;14.47;9.43;;;21.80;95.00;;;;;;5073321;28;20451;-59
2023/08/24 06:39:41;;;;;;;8.73;7.77;;;21.90;95.00;;;;;;5073088;28;20452;-59
2023/08/24 06:42:08;;;;;;;10.40;7.73;;;22.00;95.20;;;;;;5073208;28;20464;-59
2023/08/24 06:44:35;;;;;;;9.93;7.60;;;22.10;95.10;;;;;;5072929;28;20484;-59
2023/08/24 06:47:02;;;;;;;9.33;8.07;;;22.20;95.10;;;;;;5073170;28;20445;-59
2023/08/24 06:49:29;;;;;;;8.53;7.53;;;22.40;95.00;;;;;;5073088;28;20456;-59
2023/08/24 06:51:56;;;;;;;10.00;7.60;;;22.50;95.00;;;;;;5073102;28;20456;-59
2023/08/24 06:54:24;;;;;;;10.60;7.90;;;22.60;94.80;;;;;;5073264;28;20437;-59
2023/08/24 06:56:50;;;;;;;8.77;7.87;;;22.70;94.60;;;;;;5073208;28;20473;-59
2023/08/24 06:59:17;;;;;;;8.33;6.97;;;22.80;94.20;;;;;;5072865;28;20942;-59
2023/08/24 07:01:44;;;;;;;7.77;6.47;;;22.90;94.10;;;;;;5073494;28;20460;-59
2023/08/24 07:04:10;;;;;;;7.50;5.60;;;23.10;94.20;;;;;;5073067;28;20468;-59
2023/08/24 07:06:37;;;;;;;8.23;7.30;;;23.20;93.70;;;;;;5072972;28;20448;-59
2023/08/24 07:09:06;;;;;;;8.10;5.80;;;23.30;93.60;;;;;;5073014;28;20527;-59
2023/08/24 07:11:34;;;;;;;7.57;5.80;;;23.40;93.30;;;;;;5072884;28;20464;-59
2023/08/24 07:14:01;;;;;;;5.73;5.20;;;23.50;92.90;;;;;;5072767;28;20931;-60
2023/08/24 07:16:28;;;;;;;15.33;6.50;;;23.70;92.60;;;;;;5073096;28;20445;-60
2023/08/24 07:18:54;;;;;;;7.80;6.53;;;23.80;92.00;;;;;;5072647;28;20437;-59
2023/08/24 07:21:21;;;;;;;8.13;6.63;;;23.90;91.50;;;;;;5073100;28;20480;-59
2023/08/24 07:23:48;;;;;;;5.93;5.33;;;24.10;91.40;;;;;;5073048;28;20479;-59
2023/08/24 07:26:15;;;;;;;7.43;5.40;;;24.10;91.00;;;;;;5073034;28;20452;-59
2023/08/24 07:28:43;;;;;;;5.33;4.47;;;24.30;90.90;;;;;;5072788;28;20950;-59
2023/08/24 07:31:11;;;;;;;6.93;4.83;;;24.40;90.00;;;;;;5072903;28;20469;-59
2023/08/24 07:33:38;;;;;;;7.60;4.93;;;24.50;89.80;;;;;;5072891;28;20489;-59
2023/08/24 07:36:06;;;;;;;5.90;4.20;;;24.70;87.10;;;;;;5072765;28;20456;-59
2023/08/24 07:38:32;;;;;;;6.03;4.73;;;24.80;86.10;;;;;;5072683;28;20519;-59
2023/08/24 07:40:59;;;;;;;8.33;4.63;;;24.90;85.10;;;;;;5075096;28;20514;-59
2023/08/24 07:43:26;;;;;;;7.87;4.10;;;25.00;84.60;;;;;;5076440;28;20480;-59
2023/08/24 07:45:54;;;;;;;7.37;4.33;;;25.10;84.20;;;;;;5076382;28;20467;-59
2023/08/24 07:48:21;;;;;;;6.40;4.67;;;25.20;83.50;;;;;;5076400;28;20452;-59
2023/08/24 07:50:48;;;;;;;6.10;4.40;;;25.40;83.10;;;;;;5076162;28;20938;-59
2023/08/24 07:53:15;;;;;;;6.97;4.40;;;25.60;82.00;;;;;;5076678;28;20487;-59
2023/08/24 07:55:42;;;;;;;7.40;4.10;;;25.80;81.70;;;;;;5076146;28;20451;-59
2023/08/24 07:58:09;;;;;;;6.43;4.60;;;26.00;80.80;;;;;;5076142;28;20833;-59
2023/08/24 08:00:36;;;;;;;10.60;4.60;;;26.20;77.80;;;;;;5075802;28;20444;-59
2023/08/24 08:03:04;;;;;;;6.70;4.17;;;26.40;76.50;;;;;;5075933;28;20447;-59
2023/08/24 08:05:31;;;;;;;5.93;4.13;;;26.50;75.70;;;;;;5075959;28;20484;-59
2023/08/24 08:07:58;;;;;;;5.07;4.03;;;26.70;74.10;;;;;;5075979;28;20477;-59
2023/08/24 08:10:25;;;;;;;5.20;3.90;;;26.80;73.00;;;;;;5073957;28;20445;-60
2023/08/24 08:12:52;;;;;;;7.33;4.33;;;26.90;72.40;;;;;;5055405;28;21001;-60
2023/08/24 08:15:19;;;;;;;7.17;3.77;;;27.00;71.30;;;;;;5055583;28;20449;-59
2023/08/24 08:17:46;;;;;;;4.47;4.07;;;27.20;71.20;;;;;;5055750;28;20448;-59
2023/08/24 08:20:15;;;;;;;7.57;4.77;;;27.40;72.60;;;;;;5055617;28;20453;-60
2023/08/24 08:22:42;;;;;;;8.37;3.93;;;27.60;72.00;;;;;;5068162;28;20488;-60
2023/08/24 08:25:09;;;;;;;6.90;4.30;;;27.90;71.10;;;;;;5075302;28;21024;-60
2023/08/24 08:27:36;;;;;;;7.40;4.20;;;28.20;69.80;;;;;;5075308;28;20853;-59
2023/08/24 08:30:04;;;;;;;5.03;3.70;;;28.40;68.30;;;;;;5076147;28;20844;-60
2023/08/24 08:32:31;;;;;;;6.57;3.40;;;28.70;67.90;;;;;;5075098;28;20982;-59
2023/08/24 08:34:59;;;;;;;6.20;4.10;;;28.90;66.40;;;;;;5075478;28;20467;-59
2023/08/24 08:37:28;;;;;;;7.80;4.77;;;29.20;64.80;;;;;;5075291;28;20455;-59
2023/08/24 08:39:54;;;;;;;9.20;5.70;;;29.40;62.50;;;;;;5075099;28;20451;-59
2023/08/24 08:42:21;;;;;;;5.03;3.77;;;29.50;60.50;;;;;;5074987;28;20992;-59
2023/08/24 08:44:47;;;;;;;4.47;3.70;;;29.60;60.50;;;;;;5074953;28;21046;-59
2023/08/24 08:47:14;;;;;;;4.97;4.20;;;29.70;60.30;;;;;;5074862;28;20934;-59
2023/08/24 08:49:43;;;;;;;6.50;4.80;;;29.90;60.20;;;;;;5075199;28;20441;-59
2023/08/24 08:52:11;;;;;;;4.77;3.90;;;30.00;60.30;;;;;;5074166;28;21001;-59
2023/08/24 08:54:40;;;;;;;7.27;4.30;;;30.20;59.20;;;;;;5075182;28;20745;-60
2023/08/24 08:57:07;;;;;;;7.50;4.23;;;30.30;58.60;;;;;;5075068;28;20448;-59
2023/08/24 08:59:35;;;;;;;5.83;4.77;;;30.50;58.60;;;;;;5074951;28;20475;-60
2023/08/24 09:02:02;;;;;;;8.50;4.90;;;30.60;58.40;;;;;;5075008;28;20464;-60
2023/08/24 09:04:31;;;;;;;7.63;4.40;;;30.70;57.80;;;;;;5075132;28;20479;-60
2023/08/24 09:06:57;;;;;;;6.17;4.00;;;30.70;58.30;;;;;;5074867;28;20455;-60
2023/08/24 09:09:25;;;;;;;10.17;4.80;;;30.80;57.60;;;;;;5074845;28;20444;-58
2023/08/24 09:11:53;;;;;;;7.10;4.30;;;31.00;57.50;;;;;;5074964;28;20475;-59
2023/08/24 09:14:20;;;;;;;7.00;4.07;;;31.10;57.60;;;;;;5074450;28;20961;-59
2023/08/24 09:16:47;;;;;;;6.27;3.87;;;31.10;57.10;;;;;;5074673;28;20444;-59
2023/08/24 09:19:13;;;;;;;8.87;4.37;;;31.20;56.60;;;;;;5074822;28;20448;-59
2023/08/24 09:21:41;;;;;;;5.50;3.33;;;31.20;56.40;;;;;;5074343;28;20472;-58
2023/08/24 09:24:09;;;;;;;7.03;4.00;;;31.30;56.10;;;;;;5074400;28;20484;-58
2023/08/24 09:26:42;;;;;;;5.70;3.77;;;31.40;55.80;;;;;;5074483;28;20467;-59
2023/08/24 09:29:14;;;;;;;6.73;3.43;;;31.40;54.90;;;;;;5074956;28;20519;-59
2023/08/24 09:31:43;;;;;;;7.43;3.20;;;31.50;54.70;;;;;;5074309;28;20838;-60
2023/08/24 09:34:10;;;;;;;7.67;4.27;;;31.50;54.70;;;;;;5074590;28;20440;-57
2023/08/24 09:36:38;;;;;;;4.90;3.50;;;31.60;54.80;;;;;;5074300;28;20444;-59
2023/08/24 09:39:06;;;;;;;5.63;3.60;;;31.70;54.30;;;;;;5074474;28;20440;-58
2023/08/24 09:41:45;;;;;;;5.50;3.90;;;31.90;53.80;;;;;;5074085;28;20567;-59
2023/08/24 09:44:13;;;;;;;6.33;3.40;;;32.00;54.00;;;;;;5074072;28;20471;-59
2023/08/24 09:46:40;;;;;;;6.10;4.33;;;32.10;53.90;;;;;;5073765;28;20443;-58
2023/08/24 09:49:08;;;;;;;6.20;3.37;;;32.20;53.20;;;;;;5074055;28;20455;-58
2023/08/24 09:51:36;;;;;;;5.53;3.70;;;32.40;52.10;;;;;;5073954;28;20459;-59
2023/08/24 09:54:08;;;;;;;5.30;4.00;;;32.50;51.90;;;;;;5073974;28;20459;-59
2023/08/24 09:56:36;;;;;;;5.77;3.70;;;32.60;50.30;;;;;;5073810;28;20521;-60
2023/08/24 09:59:11;;;;;;;6.00;3.73;;;32.60;49.50;;;;;;5073929;28;20483;-59
2023/08/24 10:01:39;;;;;;;7.83;3.50;;;32.60;49.50;;;;;;5074297;28;20470;-59
2023/08/24 10:04:08;;;;;;;3.60;3.30;;;32.70;48.60;;;;;;5072881;28;20490;-59
2023/08/24 10:06:38;;;;;;;7.57;3.97;;;32.70;48.20;;;;;;5073805;28;20436;-59
2023/08/24 10:09:08;;;;;;;4.30;3.40;;;32.70;48.20;;;;;;5073731;28;20440;-59
2023/08/24 10:11:41;;;;;;;3.30;3.00;;;32.80;48.70;;;;;;5073276;28;21034;-59
2023/08/24 10:14:13;;;;;;;4.07;3.77;;;33.00;48.30;;;;;;5073646;28;20427;-59
2023/08/24 10:16:43;;;;;;;5.40;3.77;;;33.00;47.10;;;;;;5073644;28;20427;-59
2023/08/24 10:19:10;;;;;;;8.70;3.80;;;33.00;47.20;;;;;;5073842;28;20788;-59
2023/08/24 10:21:39;;;;;;;4.47;3.60;;;33.10;47.70;;;;;;5073308;28;20479;-59
2023/08/24 10:24:06;;;;;;;5.00;4.37;;;33.20;48.00;;;;;;5073831;28;20436;-59
2023/08/24 10:26:33;;;;;;;6.73;3.87;;;33.30;47.00;;;;;;5075394;28;20444;-59
2023/08/24 10:29:01;;;;;;;6.87;3.80;;;33.30;46.30;;;;;;5075627;28;20483;-59
2023/08/24 10:31:29;;;;;;;4.77;3.80;;;33.00;45.70;;;;;;5075083;28;20495;-59
2023/08/24 10:33:59;;;;;;;4.87;4.13;;;33.00;45.70;;;;;;5074054;28;20830;-59
2023/08/24 10:36:26;;;;;;;6.50;4.00;;;32.90;45.60;;;;;;5073865;28;20444;-59
2023/08/24 10:38:57;;;;;;;4.80;3.13;;;32.80;46.00;;;;;;5073641;28;20454;-59
2023/08/24 10:41:27;;;;;;;6.53;3.60;;;32.80;46.00;;;;;;5073645;28;20499;-59
2023/08/24 10:44:06;;;;;;;4.17;3.10;;;32.60;45.80;;;;;;5073941;28;20435;-59
2023/08/24 10:46:36;;;;;;;3.30;3.00;;;32.50;46.50;;;;;;5073537;28;20478;-59
2023/08/24 10:49:05;;;;;;;9.33;3.17;;;32.60;46.60;;;;;;5073506;28;20515;-59
2023/08/24 10:51:32;;;;;;;4.67;3.00;;;32.80;47.00;;;;;;5073393;28;20467;-59
2023/08/24 10:54:00;;;;;;;6.50;3.33;;;33.00;46.50;;;;;;5074184;28;20831;-59
2023/08/24 10:56:35;;;;;;;3.97;3.50;;;33.10;45.30;;;;;;5073533;28;20531;-59
2023/08/24 10:59:13;;;;;;;4.40;4.00;;;33.20;45.50;;;;;;5073297;28;20791;-59
2023/08/24 11:01:40;;;;;;;4.57;3.03;;;33.40;46.00;;;;;;5073129;28;20507;-59
2023/08/24 11:04:08;;;;;;;4.37;3.17;;;33.40;45.00;;;;;;5073053;28;20470;-59
2023/08/24 11:06:35;;;;;;;4.53;3.47;;;33.40;45.40;;;;;;5072938;28;20513;-59
2023/08/24 11:09:13;;;;;;;4.20;3.00;;;33.20;44.90;;;;;;5072795;28;20439;-59
2023/08/24 11:11:40;;;;;;;3.10;2.80;;;32.80;45.30;;;;;;5072735;28;20471;-59
2023/08/24 11:14:19;;;;;;;5.60;2.90;;;32.50;46.20;;;;;;5073016;28;20451;-59
2023/08/24 11:16:47;;;;;;;4.37;3.80;;;32.10;46.90;;;;;;5076808;28;20444;-58
2023/08/24 11:19:16;;;;;;;5.70;3.20;;;31.70;47.20;;;;;;5076982;28;20539;-59
2023/08/24 11:21:44;;;;;;;4.53;3.03;;;31.40;48.50;;;;;;5076667;28;20483;-58
2023/08/24 11:24:12;;;;;;;4.27;3.03;;;31.10;49.00;;;;;;5076754;28;20452;-59
2023/08/24 11:26:43;;;;;;;3.43;3.10;;;31.00;50.20;;;;;;5076801;28;20436;-59
2023/08/24 11:29:10;;;;;;;4.57;3.43;;;30.90;50.50;;;;;;5076470;28;20436;-59
2023/08/24 11:31:37;;;;;;;5.03;3.77;;;30.70;50.90;;;;;;5076679;28;20530;-59
2023/08/24 11:34:05;;;;;;;5.13;3.30;;;30.70;51.30;;;;;;5076693;28;20852;-59
2023/08/24 11:36:41;;;;;;;3.43;3.10;;;30.70;51.70;;;;;;5076605;28;20436;-59
2023/08/24 11:39:14;;;;;;;8.83;3.70;;;30.60;51.80;;;;;;5076253;28;20902;-59
2023/08/24 11:41:41;;;;;;;3.30;3.00;;;30.70;52.00;;;;;;5076540;28;20464;-59
2023/08/24 11:44:08;;;;;;;4.13;3.37;;;30.80;52.10;;;;;;5076408;28;20447;-59
2023/08/24 11:46:34;;;;;;;4.53;2.87;;;30.80;52.10;;;;;;5076582;28;20484;-59
2023/08/24 11:49:01;;;;;;;4.23;3.00;;;30.80;52.00;;;;;;5076492;28;20443;-59
2023/08/24 11:51:28;;;;;;;6.17;3.07;;;30.60;52.40;;;;;;5076288;28;20456;-59
2023/08/24 11:53:58;;;;;;;12.43;3.30;;;30.40;53.00;;;;;;5076016;28;20436;-59
2023/08/24 11:56:24;;;;;;;6.77;3.10;;;30.10;52.50;;;;;;5075965;28;20993;-59
2023/08/24 11:58:51;;;;;;;8.10;2.83;;;29.60;54.30;;;;;;5076196;28;20448;-59
2023/08/24 12:01:18;;;;;;;5.27;2.97;;;29.20;56.20;;;;;;5076094;28;20880;-56
2023/08/24 12:03:45;;;;;;;8.40;3.40;;;28.90;58.10;;;;;;5076017;28;20452;-56
2023/08/24 12:06:13;;;;;;;4.07;2.80;;;28.60;60.60;;;;;;5076255;28;20487;-56
2023/08/24 12:08:41;;;;;;;6.90;3.10;;;28.30;63.80;;;;;;5076013;28;20482;-57
2023/08/24 12:11:14;;;;;;;8.47;3.80;;;28.10;65.90;;;;;;5075912;28;20495;-56
2023/08/24 12:13:45;;;;;;;9.10;2.70;;;27.90;67.50;;;;;;5075694;28;20907;-56
2023/08/24 12:16:13;;;;;;;4.50;3.23;;;27.80;70.00;;;;;;5075934;28;20870;-57
2023/08/24 12:18:48;;;;;;;8.63;3.33;;;27.70;71.80;;;;;;5076093;28;20436;-57
2023/08/24 12:21:15;;;;;;;10.50;3.77;;;27.70;73.00;;;;;;5075662;28;20468;-58
2023/08/24 12:23:41;;;;;;;5.47;3.77;;;27.80;75.10;;;;;;5075818;28;20445;-58
2023/08/24 12:26:17;;;;;;;9.37;4.57;;;27.80;77.10;;;;;;5074793;28;20832;-58
2023/08/24 12:28:50;;;;;;;6.70;3.77;;;27.90;79.10;;;;;;5075182;28;20839;-59
2023/08/24 12:31:18;;;;;;;7.40;4.10;;;28.00;78.60;;;;;;5075568;28;20897;-59
2023/08/24 12:33:45;;;;;;;5.47;3.83;;;28.00;78.10;;;;;;5075593;28;20448;-59
2023/08/24 12:36:11;;;;;;;5.77;4.90;;;28.20;78.60;;;;;;5075610;28;20441;-59
2023/08/24 12:38:39;;;;;;;6.80;4.17;;;28.30;78.00;;;;;;5075458;28;20452;-59
2023/08/24 12:41:06;;;;;;;5.90;5.30;;;28.50;78.30;;;;;;5075043;28;21049;-59
2023/08/24 12:43:33;;;;;;;8.33;4.00;;;28.70;77.80;;;;;;5075876;28;20613;-59
2023/08/24 12:46:01;;;;;;;11.57;4.80;;;28.80;77.10;;;;;;5074814;28;20892;-59
2023/08/24 12:48:28;;;;;;;7.13;4.70;;;29.00;77.30;;;;;;5074883;28;20975;-59